sensor_id;sensor_type;location;lat;lon;timestamp;P1;durP1;ratioP1;P2;durP2;ratioP2
31734;SDS011;18313;48.518;9.124;2024-01-15T00:00:50;26.60;;;11.45;;
31734;SDS011;18313;48.518;9.124;2024-01-15T00:03:17;25.77;;;11.55;;
31734;SDS011;18313;48.518;9.124;2024-01-15T00:05:44;27.35;;;11.98;;
31734;SDS011;18313;48.518;9.124;2024-01-15T00:08:11;27.48;;;11.98;;
31734;SDS011;18313;48.518;9.124;2024-01-15T00:10:39;27.35;;;12.18;;
31734;SDS011;18313;48.518;9.124;2024-01-15T00:13:07;29.58;;;13.00;;
31734;SDS011;18313;48.518;9.124;2024-01-15T00:15:35;30.65;;;12.63;;
31734;SDS011;18313;48.518;9.124;2024-01-15T00:18:02;28.38;;;12.15;;
31734;SDS011;18313;48.518;9.124;2024-01-15T00:20:30;28.77;;;12.35;;
31734;SDS011;18313;48.518;9.124;2024-01-15T00:22:57;29.88;;;12.73;;
31734;SDS011;18313;48.518;9.124;2024-01-15T00:25:25;30.98;;;13.73;;
31734;SDS011;18313;48.518;9.124;2024-01-15T00:27:52;26.17;;;11.55;;
31734;SDS011;18313;48.518;9.124;2024-01-15T00:30:19;31.15;;;12.60;;
31734;SDS011;18313;48.518;9.124;2024-01-15T00:32:46;28.63;;;12.68;;
31734;SDS011;18313;48.518;9.124;2024-01-15T00:35:14;32.55;;;13.95;;
31734;SDS011;18313;48.518;9.124;2024-01-15T00:37:41;29.08;;;12.40;;
31734;SDS011;18313;48.518;9.124;2024-01-15T00:40:08;30.02;;;12.90;;
31734;SDS011;18313;48.518;9.124;2024-01-15T00:42:35;27.60;;;12.45;;
31734;SDS011;18313;48.518;9.124;2024-01-15T00:45:03;32.60;;;13.20;;
31734;SDS011;18313;48.518;9.124;2024-01-15T00:47:32;29.60;;;12.73;;
31734;SDS011;18313;48.518;9.124;2024-01-15T00:49:59;29.45;;;13.00;;
31734;SDS011;18313;48.518;9.124;2024-01-15T00:52:26;30.80;;;12.38;;
31734;SDS011;18313;48.518;9.124;2024-01-15T00:54:53;32.33;;;13.02;;
31734;SDS011;18313;48.518;9.124;2024-01-15T00:57:20;26.42;;;11.77;;
31734;SDS011;18313;48.518;9.124;2024-01-15T00:59:48;28.90;;;11.73;;
31734;SDS011;18313;48.518;9.124;2024-01-15T01:02:15;26.92;;;12.10;;
31734;SDS011;18313;48.518;9.124;2024-01-15T01:04:42;29.35;;;12.15;;
31734;SDS011;18313;48.518;9.124;2024-01-15T01:07:10;28.70;;;12.75;;
31734;SDS011;18313;48.518;9.124;2024-01-15T01:09:37;31.90;;;11.63;;
31734;SDS011;18313;48.518;9.124;2024-01-15T01:12:04;29.15;;;11.38;;
31734;SDS011;18313;48.518;9.124;2024-01-15T01:14:32;23.17;;;10.75;;
31734;SDS011;18313;48.518;9.124;2024-01-15T01:16:59;27.20;;;12.00;;
31734;SDS011;18313;48.518;9.124;2024-01-15T01:19:27;25.23;;;11.00;;
31734;SDS011;18313;48.518;9.124;2024-01-15T01:21:54;26.80;;;11.20;;
31734;SDS011;18313;48.518;9.124;2024-01-15T01:24:21;27.25;;;10.88;;
31734;SDS011;18313;48.518;9.124;2024-01-15T01:26:48;24.77;;;10.63;;
31734;SDS011;18313;48.518;9.124;2024-01-15T01:29:15;25.63;;;11.45;;
31734;SDS011;18313;48.518;9.124;2024-01-15T01:31:43;26.38;;;10.95;;
31734;SDS011;18313;48.518;9.124;2024-01-15T01:34:14;27.10;;;11.25;;
31734;SDS011;18313;48.518;9.124;2024-01-15T01:36:43;26.55;;;10.85;;
31734;SDS011;18313;48.518;9.124;2024-01-15T01:39:10;27.48;;;12.00;;
31734;SDS011;18313;48.518;9.124;2024-01-15T01:41:38;27.48;;;11.38;;
31734;SDS011;18313;48.518;9.124;2024-01-15T01:44:06;26.10;;;10.82;;
31734;SDS011;18313;48.518;9.124;2024-01-15T01:46:34;23.08;;;10.38;;
31734;SDS011;18313;48.518;9.124;2024-01-15T01:49:06;28.13;;;11.45;;
31734;SDS011;18313;48.518;9.124;2024-01-15T01:51:34;25.77;;;10.77;;
31734;SDS011;18313;48.518;9.124;2024-01-15T01:54:04;25.02;;;10.60;;
31734;SDS011;18313;48.518;9.124;2024-01-15T01:56:33;25.30;;;10.65;;
31734;SDS011;18313;48.518;9.124;2024-01-15T01:59:01;27.63;;;10.50;;
31734;SDS011;18313;48.518;9.124;2024-01-15T02:01:29;25.08;;;10.57;;
31734;SDS011;18313;48.518;9.124;2024-01-15T02:03:58;23.52;;;10.43;;
31734;SDS011;18313;48.518;9.124;2024-01-15T02:06:25;22.13;;;9.65;;
31734;SDS011;18313;48.518;9.124;2024-01-15T02:08:53;24.60;;;10.57;;
31734;SDS011;18313;48.518;9.124;2024-01-15T02:11:21;27.02;;;10.23;;
31734;SDS011;18313;48.518;9.124;2024-01-15T02:13:48;25.55;;;10.25;;
31734;SDS011;18313;48.518;9.124;2024-01-15T02:16:15;26.30;;;10.57;;
31734;SDS011;18313;48.518;9.124;2024-01-15T02:18:43;23.45;;;10.45;;
31734;SDS011;18313;48.518;9.124;2024-01-15T02:21:12;25.58;;;10.30;;
31734;SDS011;18313;48.518;9.124;2024-01-15T02:23:39;25.13;;;9.98;;
31734;SDS011;18313;48.518;9.124;2024-01-15T02:26:06;24.95;;;10.57;;
31734;SDS011;18313;48.518;9.124;2024-01-15T02:28:34;22.92;;;9.73;;
31734;SDS011;18313;48.518;9.124;2024-01-15T02:31:02;23.30;;;10.02;;
31734;SDS011;18313;48.518;9.124;2024-01-15T02:33:29;26.05;;;10.65;;
31734;SDS011;18313;48.518;9.124;2024-01-15T02:35:56;25.35;;;10.60;;
31734;SDS011;18313;48.518;9.124;2024-01-15T02:38:23;23.27;;;10.02;;
31734;SDS011;18313;48.518;9.124;2024-01-15T02:40:50;23.55;;;10.07;;
31734;SDS011;18313;48.518;9.124;2024-01-15T02:43:18;24.20;;;9.45;;
31734;SDS011;18313;48.518;9.124;2024-01-15T02:45:46;22.88;;;10.13;;
31734;SDS011;18313;48.518;9.124;2024-01-15T02:48:16;26.58;;;10.02;;
31734;SDS011;18313;48.518;9.124;2024-01-15T02:50:43;25.23;;;9.68;;
31734;SDS011;18313;48.518;9.124;2024-01-15T02:53:10;22.67;;;9.68;;
31734;SDS011;18313;48.518;9.124;2024-01-15T02:55:37;22.92;;;9.48;;
31734;SDS011;18313;48.518;9.124;2024-01-15T02:58:04;22.83;;;9.45;;
31734;SDS011;18313;48.518;9.124;2024-01-15T03:00:31;23.38;;;9.10;;
31734;SDS011;18313;48.518;9.124;2024-01-15T03:02:58;21.52;;;8.95;;
31734;SDS011;18313;48.518;9.124;2024-01-15T03:05:25;22.10;;;9.52;;
31734;SDS011;18313;48.518;9.124;2024-01-15T03:07:53;23.83;;;9.25;;
31734;SDS011;18313;48.518;9.124;2024-01-15T03:10:20;21.00;;;9.13;;
31734;SDS011;18313;48.518;9.124;2024-01-15T03:12:47;23.45;;;9.02;;
31734;SDS011;18313;48.518;9.124;2024-01-15T03:15:14;24.60;;;9.35;;
31734;SDS011;18313;48.518;9.124;2024-01-15T03:17:42;21.90;;;9.05;;
31734;SDS011;18313;48.518;9.124;2024-01-15T03:20:10;23.75;;;8.35;;
31734;SDS011;18313;48.518;9.124;2024-01-15T03:22:37;22.90;;;8.98;;
31734;SDS011;18313;48.518;9.124;2024-01-15T03:25:05;20.83;;;8.55;;
31734;SDS011;18313;48.518;9.124;2024-01-15T03:27:33;21.50;;;9.45;;
31734;SDS011;18313;48.518;9.124;2024-01-15T03:30:00;20.63;;;9.57;;
31734;SDS011;18313;48.518;9.124;2024-01-15T03:32:28;23.75;;;9.32;;
31734;SDS011;18313;48.518;9.124;2024-01-15T03:34:56;22.23;;;9.45;;
31734;SDS011;18313;48.518;9.124;2024-01-15T03:37:23;24.77;;;9.75;;
31734;SDS011;18313;48.518;9.124;2024-01-15T03:39:50;23.27;;;9.75;;
31734;SDS011;18313;48.518;9.124;2024-01-15T03:42:17;25.40;;;9.77;;
31734;SDS011;18313;48.518;9.124;2024-01-15T03:44:44;26.70;;;10.90;;
31734;SDS011;18313;48.518;9.124;2024-01-15T03:47:11;25.98;;;10.38;;
31734;SDS011;18313;48.518;9.124;2024-01-15T03:49:39;24.38;;;9.88;;
31734;SDS011;18313;48.518;9.124;2024-01-15T03:52:06;23.23;;;10.63;;
31734;SDS011;18313;48.518;9.124;2024-01-15T03:54:33;27.08;;;10.63;;
31734;SDS011;18313;48.518;9.124;2024-01-15T03:57:00;24.63;;;10.23;;
31734;SDS011;18313;48.518;9.124;2024-01-15T03:59:27;26.65;;;10.30;;
31734;SDS011;18313;48.518;9.124;2024-01-15T04:01:55;27.50;;;10.73;;
31734;SDS011;18313;48.518;9.124;2024-01-15T04:04:22;24.65;;;10.38;;
31734;SDS011;18313;48.518;9.124;2024-01-15T04:06:50;29.73;;;11.23;;
31734;SDS011;18313;48.518;9.124;2024-01-15T04:09:17;24.95;;;10.15;;
31734;SDS011;18313;48.518;9.124;2024-01-15T04:11:44;26.15;;;11.10;;
31734;SDS011;18313;48.518;9.124;2024-01-15T04:14:11;25.95;;;11.20;;
31734;SDS011;18313;48.518;9.124;2024-01-15T04:16:38;24.95;;;10.45;;
31734;SDS011;18313;48.518;9.124;2024-01-15T04:19:06;26.15;;;10.52;;
31734;SDS011;18313;48.518;9.124;2024-01-15T04:21:33;25.48;;;10.35;;
31734;SDS011;18313;48.518;9.124;2024-01-15T04:24:00;25.58;;;11.32;;
31734;SDS011;18313;48.518;9.124;2024-01-15T04:26:27;25.08;;;10.57;;
31734;SDS011;18313;48.518;9.124;2024-01-15T04:28:54;28.65;;;10.95;;
31734;SDS011;18313;48.518;9.124;2024-01-15T04:31:24;27.23;;;10.57;;
31734;SDS011;18313;48.518;9.124;2024-01-15T04:33:54;28.80;;;11.52;;
31734;SDS011;18313;48.518;9.124;2024-01-15T04:36:21;26.05;;;10.88;;
31734;SDS011;18313;48.518;9.124;2024-01-15T04:38:48;28.48;;;11.40;;
31734;SDS011;18313;48.518;9.124;2024-01-15T04:41:16;31.02;;;10.82;;
31734;SDS011;18313;48.518;9.124;2024-01-15T04:43:43;29.35;;;10.52;;
31734;SDS011;18313;48.518;9.124;2024-01-15T04:46:11;24.65;;;10.90;;
31734;SDS011;18313;48.518;9.124;2024-01-15T04:48:38;29.08;;;11.40;;
31734;SDS011;18313;48.518;9.124;2024-01-15T04:51:05;31.63;;;11.77;;
31734;SDS011;18313;48.518;9.124;2024-01-15T04:53:35;28.77;;;12.07;;
31734;SDS011;18313;48.518;9.124;2024-01-15T04:56:02;27.38;;;11.63;;
31734;SDS011;18313;48.518;9.124;2024-01-15T04:58:29;27.15;;;10.98;;
31734;SDS011;18313;48.518;9.124;2024-01-15T05:00:56;27.17;;;11.32;;
31734;SDS011;18313;48.518;9.124;2024-01-15T05:03:24;28.52;;;11.20;;
31734;SDS011;18313;48.518;9.124;2024-01-15T05:05:51;26.77;;;11.65;;
31734;SDS011;18313;48.518;9.124;2024-01-15T05:08:19;29.40;;;11.80;;
31734;SDS011;18313;48.518;9.124;2024-01-15T05:10:47;30.02;;;12.10;;
31734;SDS011;18313;48.518;9.124;2024-01-15T05:13:14;28.27;;;11.65;;
31734;SDS011;18313;48.518;9.124;2024-01-15T05:15:41;26.80;;;11.57;;
31734;SDS011;18313;48.518;9.124;2024-01-15T05:18:08;26.75;;;11.10;;
31734;SDS011;18313;48.518;9.124;2024-01-15T05:20:36;26.13;;;11.20;;
31734;SDS011;18313;48.518;9.124;2024-01-15T05:23:03;27.70;;;11.32;;
31734;SDS011;18313;48.518;9.124;2024-01-15T05:25:30;29.48;;;12.05;;
31734;SDS011;18313;48.518;9.124;2024-01-15T05:27:58;28.48;;;12.10;;
31734;SDS011;18313;48.518;9.124;2024-01-15T05:30:25;29.30;;;11.75;;
31734;SDS011;18313;48.518;9.124;2024-01-15T05:32:52;28.92;;;11.13;;
31734;SDS011;18313;48.518;9.124;2024-01-15T05:35:19;28.20;;;11.65;;
31734;SDS011;18313;48.518;9.124;2024-01-15T05:37:47;27.55;;;11.43;;
31734;SDS011;18313;48.518;9.124;2024-01-15T05:40:14;25.92;;;10.70;;
31734;SDS011;18313;48.518;9.124;2024-01-15T05:42:42;26.10;;;10.75;;
31734;SDS011;18313;48.518;9.124;2024-01-15T05:45:09;24.08;;;10.38;;
31734;SDS011;18313;48.518;9.124;2024-01-15T05:47:36;21.17;;;9.95;;
31734;SDS011;18313;48.518;9.124;2024-01-15T05:50:04;21.60;;;9.98;;
31734;SDS011;18313;48.518;9.124;2024-01-15T05:52:31;24.80;;;10.45;;
31734;SDS011;18313;48.518;9.124;2024-01-15T05:54:59;23.45;;;9.93;;
31734;SDS011;18313;48.518;9.124;2024-01-15T05:57:26;22.30;;;10.10;;
31734;SDS011;18313;48.518;9.124;2024-01-15T05:59:53;24.13;;;10.25;;
31734;SDS011;18313;48.518;9.124;2024-01-15T06:02:21;21.35;;;10.50;;
31734;SDS011;18313;48.518;9.124;2024-01-15T06:04:48;20.75;;;9.70;;
31734;SDS011;18313;48.518;9.124;2024-01-15T06:07:15;25.88;;;10.30;;
31734;SDS011;18313;48.518;9.124;2024-01-15T06:09:42;20.98;;;10.25;;
31734;SDS011;18313;48.518;9.124;2024-01-15T06:12:10;22.98;;;10.10;;
31734;SDS011;18313;48.518;9.124;2024-01-15T06:14:37;24.33;;;10.00;;
31734;SDS011;18313;48.518;9.124;2024-01-15T06:17:04;22.77;;;10.35;;
31734;SDS011;18313;48.518;9.124;2024-01-15T06:19:31;22.92;;;10.60;;
31734;SDS011;18313;48.518;9.124;2024-01-15T06:21:58;24.45;;;10.88;;
31734;SDS011;18313;48.518;9.124;2024-01-15T06:24:26;23.52;;;10.05;;
31734;SDS011;18313;48.518;9.124;2024-01-15T06:26:53;25.52;;;10.60;;
31734;SDS011;18313;48.518;9.124;2024-01-15T06:29:20;24.70;;;10.80;;
31734;SDS011;18313;48.518;9.124;2024-01-15T06:31:48;24.17;;;10.27;;
31734;SDS011;18313;48.518;9.124;2024-01-15T06:34:15;24.10;;;10.65;;
31734;SDS011;18313;48.518;9.124;2024-01-15T06:36:43;24.00;;;10.85;;
31734;SDS011;18313;48.518;9.124;2024-01-15T06:39:10;23.13;;;10.32;;
31734;SDS011;18313;48.518;9.124;2024-01-15T06:41:38;25.20;;;10.82;;
31734;SDS011;18313;48.518;9.124;2024-01-15T06:44:10;22.08;;;9.70;;
31734;SDS011;18313;48.518;9.124;2024-01-15T06:46:44;22.90;;;10.55;;
31734;SDS011;18313;48.518;9.124;2024-01-15T06:49:11;25.80;;;10.23;;
31734;SDS011;18313;48.518;9.124;2024-01-15T06:51:39;23.58;;;10.50;;
31734;SDS011;18313;48.518;9.124;2024-01-15T06:54:07;23.02;;;10.50;;
31734;SDS011;18313;48.518;9.124;2024-01-15T06:56:34;24.33;;;10.60;;
31734;SDS011;18313;48.518;9.124;2024-01-15T06:59:01;21.58;;;10.02;;
31734;SDS011;18313;48.518;9.124;2024-01-15T07:01:29;23.70;;;10.55;;
31734;SDS011;18313;48.518;9.124;2024-01-15T07:03:56;20.50;;;9.95;;
31734;SDS011;18313;48.518;9.124;2024-01-15T07:06:24;24.42;;;10.43;;
31734;SDS011;18313;48.518;9.124;2024-01-15T07:08:51;20.52;;;9.38;;
31734;SDS011;18313;48.518;9.124;2024-01-15T07:11:18;21.08;;;9.82;;
31734;SDS011;18313;48.518;9.124;2024-01-15T07:13:45;21.90;;;9.40;;
31734;SDS011;18313;48.518;9.124;2024-01-15T07:16:13;24.15;;;10.02;;
31734;SDS011;18313;48.518;9.124;2024-01-15T07:18:50;21.65;;;9.35;;
31734;SDS011;18313;48.518;9.124;2024-01-15T07:21:18;20.67;;;8.52;;
31734;SDS011;18313;48.518;9.124;2024-01-15T07:23:45;18.83;;;8.50;;
31734;SDS011;18313;48.518;9.124;2024-01-15T07:26:13;17.60;;;7.65;;
31734;SDS011;18313;48.518;9.124;2024-01-15T07:28:40;18.48;;;7.72;;
31734;SDS011;18313;48.518;9.124;2024-01-15T07:31:08;18.60;;;8.45;;
31734;SDS011;18313;48.518;9.124;2024-01-15T07:33:36;16.60;;;7.63;;
31734;SDS011;18313;48.518;9.124;2024-01-15T07:36:03;16.85;;;7.18;;
31734;SDS011;18313;48.518;9.124;2024-01-15T07:38:31;17.48;;;7.15;;
31734;SDS011;18313;48.518;9.124;2024-01-15T07:40:58;18.95;;;7.85;;
31734;SDS011;18313;48.518;9.124;2024-01-15T07:43:25;14.75;;;6.85;;
31734;SDS011;18313;48.518;9.124;2024-01-15T07:45:54;18.48;;;7.65;;
31734;SDS011;18313;48.518;9.124;2024-01-15T07:48:21;13.75;;;6.93;;
31734;SDS011;18313;48.518;9.124;2024-01-15T07:50:49;19.58;;;7.28;;
31734;SDS011;18313;48.518;9.124;2024-01-15T07:53:16;19.23;;;7.32;;
31734;SDS011;18313;48.518;9.124;2024-01-15T07:55:43;17.00;;;7.07;;
31734;SDS011;18313;48.518;9.124;2024-01-15T07:58:12;16.33;;;7.18;;
31734;SDS011;18313;48.518;9.124;2024-01-15T08:00:42;15.43;;;7.40;;
31734;SDS011;18313;48.518;9.124;2024-01-15T08:03:10;14.35;;;7.15;;
31734;SDS011;18313;48.518;9.124;2024-01-15T08:05:39;16.48;;;7.30;;
31734;SDS011;18313;48.518;9.124;2024-01-15T08:08:06;16.50;;;7.18;;
31734;SDS011;18313;48.518;9.124;2024-01-15T08:10:33;17.80;;;7.32;;
31734;SDS011;18313;48.518;9.124;2024-01-15T08:13:01;18.38;;;7.78;;
31734;SDS011;18313;48.518;9.124;2024-01-15T08:15:28;18.13;;;6.78;;
31734;SDS011;18313;48.518;9.124;2024-01-15T08:17:57;15.10;;;6.65;;
31734;SDS011;18313;48.518;9.124;2024-01-15T08:20:28;13.68;;;6.13;;
31734;SDS011;18313;48.518;9.124;2024-01-15T08:22:55;11.35;;;5.88;;
31734;SDS011;18313;48.518;9.124;2024-01-15T08:25:22;12.75;;;5.65;;
31734;SDS011;18313;48.518;9.124;2024-01-15T08:27:49;12.30;;;5.72;;
31734;SDS011;18313;48.518;9.124;2024-01-15T08:30:16;13.98;;;5.68;;
31734;SDS011;18313;48.518;9.124;2024-01-15T08:32:45;13.10;;;5.97;;
31734;SDS011;18313;48.518;9.124;2024-01-15T08:35:12;12.63;;;6.28;;
31734;SDS011;18313;48.518;9.124;2024-01-15T08:37:39;13.13;;;5.70;;
31734;SDS011;18313;48.518;9.124;2024-01-15T08:40:07;17.23;;;6.60;;
31734;SDS011;18313;48.518;9.124;2024-01-15T08:42:34;14.93;;;6.28;;
31734;SDS011;18313;48.518;9.124;2024-01-15T08:45:02;16.63;;;6.70;;
31734;SDS011;18313;48.518;9.124;2024-01-15T08:47:29;13.70;;;6.03;;
31734;SDS011;18313;48.518;9.124;2024-01-15T08:49:56;11.80;;;5.70;;
31734;SDS011;18313;48.518;9.124;2024-01-15T08:52:24;11.40;;;5.28;;
31734;SDS011;18313;48.518;9.124;2024-01-15T08:54:51;12.27;;;5.95;;
31734;SDS011;18313;48.518;9.124;2024-01-15T08:57:18;13.23;;;5.53;;
31734;SDS011;18313;48.518;9.124;2024-01-15T08:59:45;10.55;;;4.80;;
31734;SDS011;18313;48.518;9.124;2024-01-15T09:02:12;12.95;;;5.32;;
31734;SDS011;18313;48.518;9.124;2024-01-15T09:04:40;13.80;;;5.25;;
31734;SDS011;18313;48.518;9.124;2024-01-15T09:07:08;11.32;;;5.15;;
31734;SDS011;18313;48.518;9.124;2024-01-15T09:09:35;11.88;;;4.25;;
31734;SDS011;18313;48.518;9.124;2024-01-15T09:12:03;11.07;;;4.82;;
31734;SDS011;18313;48.518;9.124;2024-01-15T09:14:30;10.43;;;4.35;;
31734;SDS011;18313;48.518;9.124;2024-01-15T09:17:03;8.50;;;4.10;;
31734;SDS011;18313;48.518;9.124;2024-01-15T09:19:31;10.48;;;4.53;;
31734;SDS011;18313;48.518;9.124;2024-01-15T09:21:59;10.57;;;4.28;;
31734;SDS011;18313;48.518;9.124;2024-01-15T09:24:26;9.82;;;4.20;;
31734;SDS011;18313;48.518;9.124;2024-01-15T09:26:55;10.75;;;4.65;;
31734;SDS011;18313;48.518;9.124;2024-01-15T09:29:22;10.70;;;4.22;;
31734;SDS011;18313;48.518;9.124;2024-01-15T09:31:50;9.93;;;4.70;;
31734;SDS011;18313;48.518;9.124;2024-01-15T09:34:18;11.05;;;4.25;;
31734;SDS011;18313;48.518;9.124;2024-01-15T09:36:46;9.77;;;4.30;;
31734;SDS011;18313;48.518;9.124;2024-01-15T09:39:15;11.75;;;4.28;;
31734;SDS011;18313;48.518;9.124;2024-01-15T09:41:43;7.80;;;3.40;;
31734;SDS011;18313;48.518;9.124;2024-01-15T09:44:10;9.20;;;4.40;;
31734;SDS011;18313;48.518;9.124;2024-01-15T09:46:39;7.25;;;3.28;;
31734;SDS011;18313;48.518;9.124;2024-01-15T09:49:07;7.72;;;3.10;;
31734;SDS011;18313;48.518;9.124;2024-01-15T09:51:35;8.25;;;3.58;;
31734;SDS011;18313;48.518;9.124;2024-01-15T09:54:03;5.93;;;2.65;;
31734;SDS011;18313;48.518;9.124;2024-01-15T09:56:30;6.32;;;3.10;;
31734;SDS011;18313;48.518;9.124;2024-01-15T09:58:58;6.25;;;2.65;;
31734;SDS011;18313;48.518;9.124;2024-01-15T10:01:26;7.88;;;2.78;;
31734;SDS011;18313;48.518;9.124;2024-01-15T10:03:55;6.53;;;2.20;;
31734;SDS011;18313;48.518;9.124;2024-01-15T10:06:22;6.40;;;2.33;;
31734;SDS011;18313;48.518;9.124;2024-01-15T10:08:50;6.93;;;2.42;;
31734;SDS011;18313;48.518;9.124;2024-01-15T10:11:18;5.90;;;1.85;;
31734;SDS011;18313;48.518;9.124;2024-01-15T10:13:48;4.15;;;2.00;;
31734;SDS011;18313;48.518;9.124;2024-01-15T10:16:23;5.00;;;2.15;;
31734;SDS011;18313;48.518;9.124;2024-01-15T10:18:50;6.70;;;2.20;;
31734;SDS011;18313;48.518;9.124;2024-01-15T10:21:18;7.70;;;2.53;;
31734;SDS011;18313;48.518;9.124;2024-01-15T10:23:45;4.82;;;2.35;;
31734;SDS011;18313;48.518;9.124;2024-01-15T10:26:13;7.10;;;2.85;;
31734;SDS011;18313;48.518;9.124;2024-01-15T10:28:44;5.00;;;1.95;;
31734;SDS011;18313;48.518;9.124;2024-01-15T10:31:11;10.07;;;2.33;;
31734;SDS011;18313;48.518;9.124;2024-01-15T10:33:39;4.05;;;2.03;;
31734;SDS011;18313;48.518;9.124;2024-01-15T10:36:06;4.75;;;2.25;;
31734;SDS011;18313;48.518;9.124;2024-01-15T10:38:37;5.15;;;2.17;;
31734;SDS011;18313;48.518;9.124;2024-01-15T10:41:04;8.00;;;2.05;;
31734;SDS011;18313;48.518;9.124;2024-01-15T10:43:32;7.28;;;2.40;;
31734;SDS011;18313;48.518;9.124;2024-01-15T10:46:00;6.25;;;2.47;;
31734;SDS011;18313;48.518;9.124;2024-01-15T10:48:28;4.78;;;2.22;;
31734;SDS011;18313;48.518;9.124;2024-01-15T10:50:57;7.07;;;2.25;;
31734;SDS011;18313;48.518;9.124;2024-01-15T10:53:25;4.90;;;2.65;;
31734;SDS011;18313;48.518;9.124;2024-01-15T10:55:52;7.30;;;2.42;;
31734;SDS011;18313;48.518;9.124;2024-01-15T10:58:20;6.22;;;2.38;;
31734;SDS011;18313;48.518;9.124;2024-01-15T11:00:47;5.43;;;2.70;;
31734;SDS011;18313;48.518;9.124;2024-01-15T11:03:15;6.15;;;2.28;;
31734;SDS011;18313;48.518;9.124;2024-01-15T11:05:44;5.25;;;2.50;;
31734;SDS011;18313;48.518;9.124;2024-01-15T11:08:12;6.70;;;2.65;;
31734;SDS011;18313;48.518;9.124;2024-01-15T11:10:45;7.40;;;2.70;;
31734;SDS011;18313;48.518;9.124;2024-01-15T11:13:19;6.78;;;3.00;;
31734;SDS011;18313;48.518;9.124;2024-01-15T11:16:08;7.82;;;2.70;;
31734;SDS011;18313;48.518;9.124;2024-01-15T11:18:36;6.13;;;2.80;;
31734;SDS011;18313;48.518;9.124;2024-01-15T11:23:47;5.70;;;3.03;;
31734;SDS011;18313;48.518;9.124;2024-01-15T11:26:29;6.88;;;3.10;;
31734;SDS011;18313;48.518;9.124;2024-01-15T11:28:59;6.47;;;2.60;;
31734;SDS011;18313;48.518;9.124;2024-01-15T11:31:30;9.48;;;3.00;;
31734;SDS011;18313;48.518;9.124;2024-01-15T11:34:14;6.82;;;3.13;;
31734;SDS011;18313;48.518;9.124;2024-01-15T11:41:55;7.47;;;3.50;;
31734;SDS011;18313;48.518;9.124;2024-01-15T11:44:26;6.80;;;3.33;;
31734;SDS011;18313;48.518;9.124;2024-01-15T11:47:00;6.70;;;3.33;;
31734;SDS011;18313;48.518;9.124;2024-01-15T11:52:18;7.03;;;3.25;;
31734;SDS011;18313;48.518;9.124;2024-01-15T11:55:34;7.55;;;3.42;;
31734;SDS011;18313;48.518;9.124;2024-01-15T12:00:15;6.10;;;3.33;;
31734;SDS011;18313;48.518;9.124;2024-01-15T12:02:44;7.18;;;2.83;;
31734;SDS011;18313;48.518;9.124;2024-01-15T12:05:13;6.82;;;3.72;;
31734;SDS011;18313;48.518;9.124;2024-01-15T12:07:44;6.88;;;3.30;;
31734;SDS011;18313;48.518;9.124;2024-01-15T12:10:13;9.10;;;4.90;;
31734;SDS011;18313;48.518;9.124;2024-01-15T12:15:26;6.78;;;3.30;;
31734;SDS011;18313;48.518;9.124;2024-01-15T12:17:55;7.88;;;3.60;;
31734;SDS011;18313;48.518;9.124;2024-01-15T12:20:27;6.40;;;3.22;;
31734;SDS011;18313;48.518;9.124;2024-01-15T12:22:58;7.45;;;4.05;;
31734;SDS011;18313;48.518;9.124;2024-01-15T12:25:32;8.32;;;3.83;;
31734;SDS011;18313;48.518;9.124;2024-01-15T12:28:01;7.03;;;3.50;;
31734;SDS011;18313;48.518;9.124;2024-01-15T12:30:29;9.13;;;4.32;;
31734;SDS011;18313;48.518;9.124;2024-01-15T12:33:03;7.68;;;3.80;;
31734;SDS011;18313;48.518;9.124;2024-01-15T12:35:31;8.05;;;3.78;;
31734;SDS011;18313;48.518;9.124;2024-01-15T12:37:59;9.30;;;4.50;;
31734;SDS011;18313;48.518;9.124;2024-01-15T12:40:30;11.80;;;4.90;;
31734;SDS011;18313;48.518;9.124;2024-01-15T12:42:59;14.05;;;5.50;;
31734;SDS011;18313;48.518;9.124;2024-01-15T12:45:27;10.50;;;4.90;;
31734;SDS011;18313;48.518;9.124;2024-01-15T12:47:54;13.73;;;5.40;;
31734;SDS011;18313;48.518;9.124;2024-01-15T12:50:23;14.00;;;5.43;;
31734;SDS011;18313;48.518;9.124;2024-01-15T12:52:52;10.82;;;5.13;;
31734;SDS011;18313;48.518;9.124;2024-01-15T12:55:19;9.43;;;5.13;;
31734;SDS011;18313;48.518;9.124;2024-01-15T12:57:47;13.80;;;6.40;;
31734;SDS011;18313;48.518;9.124;2024-01-15T13:00:14;13.25;;;5.97;;
31734;SDS011;18313;48.518;9.124;2024-01-15T13:02:42;13.27;;;5.47;;
31734;SDS011;18313;48.518;9.124;2024-01-15T13:05:10;14.15;;;6.00;;
31734;SDS011;18313;48.518;9.124;2024-01-15T13:07:40;14.15;;;6.43;;
31734;SDS011;18313;48.518;9.124;2024-01-15T13:10:08;11.50;;;6.15;;
31734;SDS011;18313;48.518;9.124;2024-01-15T13:12:36;13.35;;;5.78;;
31734;SDS011;18313;48.518;9.124;2024-01-15T13:15:05;12.50;;;6.32;;
31734;SDS011;18313;48.518;9.124;2024-01-15T13:17:34;11.32;;;5.65;;
31734;SDS011;18313;48.518;9.124;2024-01-15T13:20:01;13.45;;;6.40;;
31734;SDS011;18313;48.518;9.124;2024-01-15T13:22:29;11.68;;;6.20;;
31734;SDS011;18313;48.518;9.124;2024-01-15T13:24:59;12.15;;;5.88;;
31734;SDS011;18313;48.518;9.124;2024-01-15T13:27:27;12.57;;;6.00;;
31734;SDS011;18313;48.518;9.124;2024-01-15T13:29:55;11.82;;;6.13;;
31734;SDS011;18313;48.518;9.124;2024-01-15T13:32:25;15.82;;;7.28;;
31734;SDS011;18313;48.518;9.124;2024-01-15T13:34:56;14.80;;;6.95;;
31734;SDS011;18313;48.518;9.124;2024-01-15T13:37:24;13.25;;;6.40;;
31734;SDS011;18313;48.518;9.124;2024-01-15T13:39:52;12.85;;;6.43;;
31734;SDS011;18313;48.518;9.124;2024-01-15T13:42:20;13.43;;;6.57;;
31734;SDS011;18313;48.518;9.124;2024-01-15T13:44:49;15.77;;;7.18;;
31734;SDS011;18313;48.518;9.124;2024-01-15T13:47:17;13.95;;;7.15;;
31734;SDS011;18313;48.518;9.124;2024-01-15T13:49:44;14.73;;;6.50;;
31734;SDS011;18313;48.518;9.124;2024-01-15T13:52:11;14.48;;;6.75;;
31734;SDS011;18313;48.518;9.124;2024-01-15T13:54:39;13.38;;;7.18;;
31734;SDS011;18313;48.518;9.124;2024-01-15T13:57:19;15.15;;;7.15;;
31734;SDS011;18313;48.518;9.124;2024-01-15T13:59:47;15.57;;;7.93;;
31734;SDS011;18313;48.518;9.124;2024-01-15T14:02:16;16.27;;;7.50;;
31734;SDS011;18313;48.518;9.124;2024-01-15T14:04:47;16.88;;;8.38;;
31734;SDS011;18313;48.518;9.124;2024-01-15T14:07:15;16.45;;;7.75;;
31734;SDS011;18313;48.518;9.124;2024-01-15T14:09:42;22.98;;;11.23;;
31734;SDS011;18313;48.518;9.124;2024-01-15T14:12:10;17.27;;;7.55;;
31734;SDS011;18313;48.518;9.124;2024-01-15T14:14:38;18.60;;;9.40;;
31734;SDS011;18313;48.518;9.124;2024-01-15T14:17:06;17.85;;;9.25;;
31734;SDS011;18313;48.518;9.124;2024-01-15T14:19:34;14.40;;;6.80;;
31734;SDS011;18313;48.518;9.124;2024-01-15T14:22:02;13.23;;;7.05;;
31734;SDS011;18313;48.518;9.124;2024-01-15T14:24:29;15.25;;;7.63;;
31734;SDS011;18313;48.518;9.124;2024-01-15T14:26:57;15.70;;;7.28;;
31734;SDS011;18313;48.518;9.124;2024-01-15T14:29:25;19.13;;;8.25;;
31734;SDS011;18313;48.518;9.124;2024-01-15T14:31:53;15.07;;;7.20;;
31734;SDS011;18313;48.518;9.124;2024-01-15T14:34:20;17.52;;;7.90;;
31734;SDS011;18313;48.518;9.124;2024-01-15T14:36:50;13.35;;;6.95;;
31734;SDS011;18313;48.518;9.124;2024-01-15T14:39:24;15.05;;;7.68;;
31734;SDS011;18313;48.518;9.124;2024-01-15T14:41:52;16.23;;;7.43;;
31734;SDS011;18313;48.518;9.124;2024-01-15T14:44:19;17.55;;;7.78;;
31734;SDS011;18313;48.518;9.124;2024-01-15T14:46:47;15.00;;;8.23;;
31734;SDS011;18313;48.518;9.124;2024-01-15T14:49:14;15.20;;;6.90;;
31734;SDS011;18313;48.518;9.124;2024-01-15T14:51:43;16.73;;;7.40;;